< < Back
Terminal Aerodrome Forecast


Current Version              Previous Versions:   1  2  3  4  5  6  7  8  9  

Terminal Aerodrome Forecast

444
FTUS44 KBMX 230500
TAFMGM
TAF
KMGM 230520Z 2306/2406 35003KT P6SM SKC=

Latest METAR

877
SAUS80 KWBC 231000 RRB
MTRMGM
METAR KMGM 230953Z AUTO 32005KT 10SM CLR 07/04 A3011 RMK AO2 SLP195
T00720044


USA.gov is the U.S. government's official web portal to all federal, state and local government web resources and services.